createdAt,value
2023-03-05T00:00:53.452Z,100.00
2023-03-05T00:03:19.846Z,100.00
2023-03-05T00:05:46.175Z,100.00
2023-03-05T00:08:12.482Z,100.00
2023-03-05T00:10:38.856Z,100.00
2023-03-05T00:13:05.183Z,100.00
2023-03-05T00:15:31.484Z,100.00
2023-03-05T00:17:57.814Z,100.00
2023-03-05T00:20:24.103Z,100.00
2023-03-05T00:22:50.466Z,100.00
2023-03-05T00:25:16.818Z,100.00
2023-03-05T00:27:43.111Z,100.00
2023-03-05T00:30:10.269Z,100.00
2023-03-05T00:32:36.718Z,100.00
2023-03-05T00:35:03.291Z,100.00
2023-03-05T00:37:29.679Z,100.00
2023-03-05T00:39:55.962Z,100.00
2023-03-05T00:42:22.289Z,100.00
2023-03-05T00:44:48.636Z,100.00
2023-03-05T00:47:18.256Z,100.00
2023-03-05T00:49:44.631Z,100.00
2023-03-05T00:52:10.960Z,100.00
2023-03-05T00:54:37.284Z,100.00
2023-03-05T00:57:05.656Z,100.00
2023-03-05T00:59:32.011Z,100.00
2023-03-05T01:01:58.507Z,100.00
2023-03-05T01:04:24.969Z,100.00
2023-03-05T01:07:00.357Z,100.00
2023-03-05T01:09:26.805Z,100.00
2023-03-05T01:11:53.720Z,100.00
2023-03-05T01:14:20.641Z,100.00
2023-03-05T01:16:47.557Z,100.00
2023-03-05T01:19:15.636Z,100.00
2023-03-05T01:21:42.556Z,100.00
2023-03-05T01:24:09.281Z,100.00
2023-03-05T01:26:35.740Z,100.00
2023-03-05T01:29:02.609Z,100.00
2023-03-05T01:31:29.201Z,100.00
2023-03-05T01:33:55.719Z,100.00
2023-03-05T01:36:24.912Z,100.00
2023-03-05T01:38:52.101Z,100.00
2023-03-05T01:41:19.322Z,100.00
2023-03-05T01:43:46.662Z,100.00
2023-03-05T01:46:12.935Z,100.00
2023-03-05T01:48:42.310Z,100.00
2023-03-05T01:51:08.763Z,100.00
2023-03-05T01:53:35.293Z,100.00
2023-03-05T01:56:01.720Z,100.00
2023-03-05T01:58:28.309Z,100.00
2023-03-05T02:00:55.443Z,100.00
2023-03-05T02:03:24.136Z,100.00
2023-03-05T02:05:50.440Z,100.00
2023-03-05T02:08:19.874Z,100.00
2023-03-05T02:10:49.508Z,100.00
2023-03-05T02:13:25.169Z,100.00
2023-03-05T02:15:54.167Z,100.00
2023-03-05T02:18:21.434Z,100.00
2023-03-05T02:20:52.590Z,100.00
2023-03-05T02:23:21.093Z,100.00
2023-03-05T02:25:47.493Z,100.00
2023-03-05T02:28:24.368Z,100.00
2023-03-05T02:30:50.769Z,100.00
2023-03-05T02:33:18.451Z,100.00
2023-03-05T02:35:46.307Z,100.00
2023-03-05T02:38:15.508Z,100.00
2023-03-05T02:40:41.962Z,100.00
2023-03-05T02:43:08.915Z,100.00
2023-03-05T02:45:35.511Z,100.00
2023-03-05T02:48:01.931Z,100.00
2023-03-05T02:50:29.140Z,100.00
2023-03-05T02:52:55.543Z,100.00
2023-03-05T02:55:22.052Z,100.00
2023-03-05T02:57:48.337Z,100.00
2023-03-05T03:00:15.303Z,100.00
2023-03-05T03:02:41.848Z,100.00
2023-03-05T03:05:08.793Z,100.00
2023-03-05T03:07:36.471Z,100.00
2023-03-05T03:10:04.257Z,100.00
2023-03-05T03:12:30.732Z,100.00
2023-03-05T03:14:57.069Z,100.00
2023-03-05T03:17:23.399Z,100.00
2023-03-05T03:19:49.716Z,100.00
2023-03-05T03:22:16.262Z,100.00
2023-03-05T03:24:43.638Z,100.00
2023-03-05T03:27:10.659Z,100.00
2023-03-05T03:29:37.478Z,100.00
2023-03-05T03:32:04.617Z,100.00
2023-03-05T03:34:30.981Z,100.00
2023-03-05T03:36:57.351Z,100.00
2023-03-05T03:39:25.375Z,100.00
2023-03-05T03:41:53.335Z,100.00
2023-03-05T03:44:21.146Z,100.00
2023-03-05T03:46:49.327Z,100.00
2023-03-05T03:49:21.002Z,100.00
2023-03-05T03:51:48.576Z,100.00
2023-03-05T03:54:16.233Z,100.00
2023-03-05T03:56:43.075Z,100.00
2023-03-05T03:59:09.630Z,100.00
2023-03-05T04:01:36.263Z,100.00
2023-03-05T04:04:03.431Z,100.00
2023-03-05T04:06:30.778Z,100.00
2023-03-05T04:08:57.218Z,100.00
2023-03-05T04:11:23.995Z,100.00
2023-03-05T04:13:50.599Z,100.00
2023-03-05T04:16:17.581Z,100.00
2023-03-05T04:18:43.933Z,100.00
2023-03-05T04:21:10.616Z,100.00
2023-03-05T04:23:37.381Z,100.00
2023-03-05T04:26:04.602Z,100.00
2023-03-05T04:28:30.975Z,100.00
2023-03-05T04:30:57.553Z,100.00
2023-03-05T04:33:24.151Z,100.00
2023-03-05T04:35:51.077Z,100.00
2023-03-05T04:38:18.859Z,100.00
2023-03-05T04:40:46.147Z,100.00
2023-03-05T04:43:12.596Z,100.00
2023-03-05T04:45:40.224Z,100.00
2023-03-05T04:48:06.926Z,100.00
2023-03-05T04:50:33.287Z,100.00
2023-03-05T04:53:00.527Z,100.00
2023-03-05T04:55:27.419Z,100.00
2023-03-05T04:57:53.844Z,100.00
2023-03-05T05:00:20.358Z,100.00
2023-03-05T05:02:49.646Z,100.00
2023-03-05T05:05:20.174Z,100.00
2023-03-05T05:07:47.090Z,100.00
2023-03-05T05:10:14.717Z,100.00
2023-03-05T05:12:42.050Z,100.00
2023-03-05T05:15:09.083Z,100.00
2023-03-05T05:17:35.533Z,100.00
2023-03-05T05:20:02.140Z,100.00
2023-03-05T05:22:29.118Z,100.00
2023-03-05T05:24:55.859Z,100.00
2023-03-05T05:27:22.668Z,100.00
2023-03-05T05:29:52.842Z,100.00
2023-03-05T05:32:22.297Z,100.00
2023-03-05T05:34:48.933Z,100.00
2023-03-05T05:37:15.370Z,100.00
2023-03-05T05:39:41.801Z,100.00
2023-03-05T05:42:08.151Z,100.00
2023-03-05T05:44:34.872Z,100.00
2023-03-05T05:47:01.668Z,100.00
2023-03-05T05:49:28.134Z,100.00
2023-03-05T05:51:54.591Z,100.00
2023-03-05T05:54:20.902Z,100.00
2023-03-05T05:56:47.239Z,100.00
2023-03-05T05:59:13.679Z,100.00
2023-03-05T06:01:40.113Z,100.00
2023-03-05T06:04:06.514Z,100.00
2023-03-05T06:06:34.818Z,100.00
2023-03-05T06:09:01.611Z,100.00
2023-03-05T06:11:28.075Z,100.00
2023-03-05T06:13:54.653Z,100.00
2023-03-05T06:16:24.523Z,100.00
2023-03-05T06:18:52.094Z,100.00
2023-03-05T06:21:20.541Z,100.00
2023-03-05T06:23:48.397Z,100.00
2023-03-05T06:26:18.306Z,100.00
2023-03-05T06:28:44.730Z,100.00
2023-03-05T06:31:19.687Z,100.00
2023-03-05T06:33:46.091Z,100.00
2023-03-05T06:36:14.648Z,100.00
2023-03-05T06:38:41.092Z,100.00
2023-03-05T06:41:13.133Z,100.00
2023-03-05T06:43:41.941Z,100.00
2023-03-05T06:46:12.341Z,100.00
2023-03-05T06:48:39.068Z,100.00
2023-03-05T06:51:12.253Z,100.00
2023-03-05T06:53:38.689Z,100.00
2023-03-05T06:56:05.359Z,100.00
2023-03-05T06:58:31.734Z,100.00
2023-03-05T07:00:58.060Z,100.00
2023-03-05T07:03:24.500Z,100.00
2023-03-05T07:05:50.851Z,100.00
2023-03-05T07:08:17.683Z,100.00
2023-03-05T07:10:44.406Z,100.00
2023-03-05T07:13:11.108Z,100.00
2023-03-05T07:15:39.909Z,100.00
2023-03-05T07:18:07.104Z,100.00
2023-03-05T07:20:35.548Z,100.00
2023-03-05T07:23:03.083Z,100.00
2023-03-05T07:25:29.753Z,100.00
2023-03-05T07:27:56.821Z,100.00
2023-03-05T07:30:23.581Z,100.00
2023-03-05T07:32:50.009Z,100.00
2023-03-05T07:35:16.436Z,100.00
2023-03-05T07:37:42.934Z,100.00
2023-03-05T07:40:10.197Z,100.00
2023-03-05T07:42:36.541Z,100.00
2023-03-05T07:45:03.121Z,100.00
2023-03-05T07:47:30.497Z,100.00
2023-03-05T07:49:56.924Z,100.00
2023-03-05T07:52:23.283Z,100.00
2023-03-05T07:54:49.620Z,100.00
2023-03-05T07:57:15.979Z,100.00
2023-03-05T07:59:43.161Z,100.00
2023-03-05T08:05:06.657Z,100.00
2023-03-05T08:07:33.077Z,100.00
2023-03-05T08:09:59.476Z,100.00
2023-03-05T08:12:25.849Z,100.00
2023-03-05T08:14:52.268Z,99.40
2023-03-05T08:17:18.636Z,100.00
2023-03-05T08:19:44.971Z,99.60
2023-03-05T08:22:11.409Z,98.35
2023-03-05T08:24:38.023Z,98.55
2023-03-05T08:27:04.325Z,99.29
2023-03-05T08:29:30.765Z,100.00
2023-03-05T08:31:57.159Z,99.91
2023-03-05T08:34:23.499Z,99.14
2023-03-05T08:36:50.103Z,97.31
2023-03-05T08:39:17.187Z,96.63
2023-03-05T08:41:43.543Z,93.96
2023-03-05T08:44:10.204Z,93.21
2023-03-05T08:46:39.516Z,93.90
2023-03-05T08:49:07.342Z,93.57
2023-03-05T08:51:35.688Z,93.63
2023-03-05T08:54:06.788Z,93.06
2023-03-05T08:56:34.796Z,92.68
2023-03-05T08:59:01.656Z,93.35
2023-03-05T09:01:28.295Z,92.52
2023-03-05T09:03:54.842Z,92.56
2023-03-05T09:06:21.299Z,91.99
2023-03-05T09:08:47.606Z,91.68
2023-03-05T09:11:14.331Z,89.49
2023-03-05T09:13:41.069Z,89.27
2023-03-05T09:16:11.414Z,90.58
2023-03-05T09:18:40.143Z,90.41
2023-03-05T09:21:08.816Z,88.67
2023-03-05T09:23:35.530Z,89.20
2023-03-05T09:26:02.376Z,90.01
2023-03-05T09:28:28.741Z,88.26
2023-03-05T09:30:55.226Z,86.61
2023-03-05T09:33:21.546Z,87.72
2023-03-05T09:35:48.732Z,85.66
2023-03-05T09:38:15.418Z,85.12
2023-03-05T09:41:07.668Z,85.46
2023-03-05T09:43:44.036Z,86.59
2023-03-05T09:46:28.240Z,85.92
2023-03-05T09:49:12.447Z,85.07
2023-03-05T09:51:42.925Z,85.16
2023-03-05T09:54:31.027Z,84.20
2023-03-05T09:57:02.606Z,82.94
2023-03-05T09:59:28.951Z,84.52
2023-03-05T10:02:16.954Z,85.10
2023-03-05T10:05:00.185Z,84.84
2023-03-05T10:07:39.743Z,83.18
2023-03-05T10:10:14.206Z,83.14
2023-03-05T10:12:43.738Z,84.66
2023-03-05T10:15:15.930Z,84.26
2023-03-05T10:18:03.504Z,85.38
2023-03-05T10:20:56.567Z,84.38
2023-03-05T10:23:29.453Z,84.85
2023-03-05T10:26:28.930Z,84.11
2023-03-05T10:29:17.159Z,85.39
2023-03-05T10:32:01.204Z,84.16
2023-03-05T10:34:38.111Z,86.57
2023-03-05T10:37:35.242Z,83.54
2023-03-05T10:40:13.463Z,84.12
2023-03-05T10:42:49.926Z,84.59
2023-03-05T10:45:24.299Z,84.26
2023-03-05T10:47:50.627Z,83.41
2023-03-05T10:50:26.812Z,82.24
2023-03-05T10:53:19.432Z,82.86
2023-03-05T10:55:45.765Z,83.23
2023-03-05T10:58:14.356Z,82.66
2023-03-05T11:00:57.159Z,81.43
2023-03-05T11:03:23.628Z,82.55
2023-03-05T11:06:02.832Z,81.12
2023-03-05T11:08:36.241Z,82.02
2023-03-05T11:11:22.408Z,82.67
2023-03-05T11:13:57.277Z,85.16
2023-03-05T11:16:26.849Z,81.16
2023-03-05T11:19:16.301Z,83.10
2023-03-05T11:21:44.276Z,81.10
2023-03-05T11:24:15.284Z,82.96
2023-03-05T11:26:56.527Z,82.89
2023-03-05T11:29:29.972Z,82.42
2023-03-05T11:31:56.753Z,84.61
2023-03-05T11:34:31.292Z,82.16
2023-03-05T11:36:57.650Z,83.38
2023-03-05T11:39:25.676Z,84.94
2023-03-05T11:41:57.830Z,85.53
2023-03-05T11:44:33.338Z,84.71
2023-03-05T11:47:02.498Z,85.09
2023-03-05T11:49:32.949Z,84.35
2023-03-05T11:52:10.561Z,83.55
2023-03-05T11:54:46.116Z,82.46
2023-03-05T11:57:14.326Z,84.65
2023-03-05T11:59:41.592Z,83.62
2023-03-05T12:02:19.637Z,84.04
2023-03-05T12:04:47.108Z,83.06
2023-03-05T12:07:18.521Z,83.55
2023-03-05T12:09:47.766Z,82.37
2023-03-05T12:12:38.719Z,82.74
2023-03-05T12:15:24.691Z,81.96
2023-03-05T12:17:57.147Z,81.06
2023-03-05T12:20:42.141Z,81.48
2023-03-05T12:23:17.914Z,81.54
2023-03-05T12:25:51.585Z,80.02
2023-03-05T12:28:40.822Z,81.33
2023-03-05T12:31:10.388Z,80.80
2023-03-05T12:33:43.462Z,82.69
2023-03-05T12:36:21.780Z,82.23
2023-03-05T12:38:54.469Z,81.07
2023-03-05T12:41:24.954Z,80.38
2023-03-05T12:44:04.891Z,80.31
2023-03-05T12:46:38.890Z,79.66
2023-03-05T12:49:38.910Z,78.44
2023-03-05T12:52:20.943Z,78.87
2023-03-05T12:55:00.838Z,78.85
2023-03-05T12:57:29.496Z,78.51
2023-03-05T13:00:14.543Z,79.10
2023-03-05T13:02:44.246Z,80.15
2023-03-05T13:05:26.185Z,78.85
2023-03-05T13:07:52.982Z,80.49
2023-03-05T13:10:29.108Z,76.99
2023-03-05T13:12:58.362Z,78.39
2023-03-05T13:15:26.285Z,78.59
2023-03-05T13:17:58.272Z,77.50
2023-03-05T13:20:27.443Z,78.68
2023-03-05T13:23:27.036Z,78.36
2023-03-05T13:26:08.521Z,78.87
2023-03-05T13:28:37.284Z,78.30
2023-03-05T13:31:13.474Z,75.85
2023-03-05T13:33:40.218Z,77.47
2023-03-05T13:36:07.139Z,77.62
2023-03-05T13:38:39.381Z,79.26
2023-03-05T13:41:26.056Z,78.91
2023-03-05T13:43:58.700Z,78.85
2023-03-05T13:46:32.608Z,79.63
2023-03-05T13:49:19.061Z,76.46
2023-03-05T13:51:56.730Z,76.22
2023-03-05T13:54:25.331Z,76.93
2023-03-05T13:57:32.062Z,77.37
2023-03-05T13:59:58.484Z,76.15
2023-03-05T14:02:27.778Z,73.67
2023-03-05T14:04:55.019Z,76.47
2023-03-05T14:07:38.457Z,76.16
2023-03-05T14:10:27.852Z,75.26
2023-03-05T14:12:54.540Z,73.94
2023-03-05T14:15:29.665Z,76.15
2023-03-05T14:18:11.270Z,72.17
2023-03-05T14:20:59.487Z,73.52
2023-03-05T14:23:35.080Z,74.25
2023-03-05T14:26:29.327Z,73.02
2023-03-05T14:29:03.555Z,76.38
2023-03-05T14:31:35.206Z,76.28
2023-03-05T14:34:05.174Z,74.33
2023-03-05T14:36:33.350Z,74.96
2023-03-05T14:39:00.947Z,74.39
2023-03-05T14:41:42.005Z,73.79
2023-03-05T14:44:17.239Z,74.07
2023-03-05T14:46:48.086Z,76.03
2023-03-05T14:49:15.860Z,74.69
2023-03-05T14:51:44.379Z,75.12
2023-03-05T14:54:26.122Z,76.18
2023-03-05T14:56:52.931Z,76.90
2023-03-05T14:59:21.615Z,75.16
2023-03-05T15:01:52.534Z,76.80
2023-03-05T15:04:19.760Z,76.89
2023-03-05T15:06:50.533Z,76.34
2023-03-05T15:09:19.526Z,76.98
2023-03-05T15:11:46.072Z,77.51
2023-03-05T15:14:12.653Z,78.28
2023-03-05T15:16:42.954Z,77.42
2023-03-05T15:19:13.464Z,77.91
2023-03-05T15:21:40.104Z,78.00
2023-03-05T15:24:06.738Z,77.98
2023-03-05T15:26:33.125Z,76.93
2023-03-05T15:28:59.524Z,77.68
2023-03-05T15:31:25.932Z,78.16
2023-03-05T15:33:52.749Z,76.98
2023-03-05T15:36:19.123Z,78.06
2023-03-05T15:38:47.312Z,77.84
2023-03-05T15:41:13.701Z,78.14
2023-03-05T15:43:40.082Z,78.21
2023-03-05T15:46:06.982Z,77.78
2023-03-05T15:48:33.463Z,77.52
2023-03-05T15:50:59.838Z,77.97
2023-03-05T15:53:26.186Z,79.05
2023-03-05T15:55:52.488Z,79.27
2023-03-05T15:58:18.837Z,79.87
2023-03-05T16:00:47.365Z,79.41
2023-03-05T16:03:14.641Z,79.16
2023-03-05T16:05:41.431Z,81.25
2023-03-05T16:08:08.902Z,79.32
2023-03-05T16:10:36.569Z,79.61
2023-03-05T16:13:07.919Z,81.08
2023-03-05T16:15:35.080Z,81.33
2023-03-05T16:18:06.252Z,81.68
2023-03-05T16:20:32.644Z,83.01
2023-03-05T16:22:58.989Z,83.09
2023-03-05T16:25:25.498Z,83.48
2023-03-05T16:27:51.882Z,82.35
2023-03-05T16:30:19.019Z,82.62
2023-03-05T16:32:45.434Z,83.10
2023-03-05T16:35:12.459Z,82.64
2023-03-05T16:37:39.972Z,82.16
2023-03-05T16:40:08.494Z,81.93
2023-03-05T16:42:35.254Z,82.39
2023-03-05T16:45:01.881Z,82.85
2023-03-05T16:47:28.258Z,82.08
2023-03-05T16:49:54.681Z,82.93
2023-03-05T16:52:22.402Z,82.64
2023-03-05T16:54:48.971Z,83.47
2023-03-05T16:57:15.884Z,85.05
2023-03-05T16:59:43.481Z,84.17
2023-03-05T17:02:10.109Z,84.40
2023-03-05T17:04:37.069Z,84.20
2023-03-05T17:07:05.366Z,84.28
2023-03-05T17:09:31.735Z,85.25
2023-03-05T17:11:58.308Z,86.41
2023-03-05T17:14:24.798Z,86.53
2023-03-05T17:16:51.166Z,87.03
2023-03-05T17:19:17.637Z,86.45
2023-03-05T17:21:44.163Z,86.15
2023-03-05T17:24:10.628Z,87.55
2023-03-05T17:26:37.496Z,88.82
2023-03-05T17:29:05.029Z,88.11
2023-03-05T17:31:31.627Z,87.95
2023-03-05T17:33:58.190Z,87.42
2023-03-05T17:36:24.741Z,86.56
2023-03-05T17:38:52.284Z,86.65
2023-03-05T17:41:18.999Z,86.79
2023-03-05T17:43:46.061Z,87.18
2023-03-05T17:46:13.064Z,87.49
2023-03-05T17:48:39.519Z,88.19
2023-03-05T17:51:07.284Z,88.36
2023-03-05T17:53:35.166Z,87.73
2023-03-05T17:56:02.115Z,87.59
2023-03-05T17:58:28.582Z,87.69
2023-03-05T18:00:55.071Z,87.94
2023-03-05T18:03:21.499Z,88.33
2023-03-05T18:05:47.940Z,87.51
2023-03-05T18:08:14.411Z,87.40
2023-03-05T18:10:40.812Z,88.20
2023-03-05T18:13:07.157Z,88.28
2023-03-05T18:15:33.573Z,88.99
2023-03-05T18:18:00.287Z,89.37
2023-03-05T18:20:31.738Z,88.63
2023-03-05T18:22:59.293Z,88.83
2023-03-05T18:25:30.900Z,89.64
2023-03-05T18:28:02.434Z,88.90
2023-03-05T18:30:29.607Z,88.49
2023-03-05T18:32:56.412Z,88.73
2023-03-05T18:35:23.567Z,90.01
2023-03-05T18:37:50.055Z,89.45
2023-03-05T18:40:20.149Z,89.61
2023-03-05T18:42:46.770Z,90.22
2023-03-05T18:45:14.898Z,90.44
2023-03-05T18:47:44.012Z,90.01
2023-03-05T18:50:14.680Z,91.23
2023-03-05T18:52:42.083Z,93.33
2023-03-05T18:55:14.538Z,90.81
2023-03-05T18:57:41.097Z,91.40
2023-03-05T19:00:08.626Z,89.88
2023-03-05T19:02:34.944Z,88.66
2023-03-05T19:05:02.652Z,88.84
2023-03-05T19:07:29.869Z,88.69
2023-03-05T19:10:02.057Z,89.05
2023-03-05T19:12:34.984Z,88.48
2023-03-05T19:15:04.025Z,89.02
2023-03-05T19:17:31.628Z,89.03
2023-03-05T19:20:03.839Z,90.42
2023-03-05T19:22:32.317Z,90.05
2023-03-05T19:24:59.467Z,89.90
2023-03-05T19:27:26.444Z,89.59
2023-03-05T19:29:53.476Z,89.94
2023-03-05T19:32:23.892Z,89.99
2023-03-05T19:34:50.718Z,90.32
2023-03-05T19:37:18.163Z,90.60
2023-03-05T19:39:44.533Z,90.21
2023-03-05T19:42:11.081Z,89.73
2023-03-05T19:44:37.520Z,89.49
2023-03-05T19:47:03.952Z,89.95
2023-03-05T19:49:30.465Z,89.96
2023-03-05T19:51:56.905Z,90.20
2023-03-05T19:54:23.584Z,90.25
2023-03-05T19:56:52.348Z,90.46
2023-03-05T19:59:21.103Z,90.46
2023-03-05T20:01:48.872Z,90.86
2023-03-05T20:04:18.514Z,90.42
2023-03-05T20:06:45.061Z,90.14
2023-03-05T20:09:11.516Z,90.44
2023-03-05T20:11:38.490Z,90.58
2023-03-05T20:14:05.052Z,90.73
2023-03-05T20:16:37.439Z,90.53
2023-03-05T20:19:06.379Z,90.39
2023-03-05T20:21:36.700Z,90.60
2023-03-05T20:24:09.553Z,90.14
2023-03-05T20:26:38.078Z,90.30
2023-03-05T20:29:05.310Z,90.41
2023-03-05T20:31:37.088Z,90.48
2023-03-05T20:34:09.388Z,90.57
2023-03-05T20:36:35.763Z,90.64
2023-03-05T20:39:04.090Z,90.11
2023-03-05T20:41:31.963Z,90.57
2023-03-05T20:43:58.322Z,90.65
2023-03-05T20:46:28.113Z,90.91
2023-03-05T20:48:57.568Z,91.27
2023-03-05T20:51:31.629Z,91.75
2023-03-05T20:54:03.022Z,91.93
2023-03-05T20:56:32.233Z,92.38
2023-03-05T20:59:00.158Z,92.69
2023-03-05T21:01:27.678Z,92.86
2023-03-05T21:03:56.889Z,92.92
2023-03-05T21:06:24.484Z,91.95
2023-03-05T21:08:50.907Z,92.32
2023-03-05T21:11:17.340Z,92.33
2023-03-05T21:13:44.277Z,92.58
2023-03-05T21:16:16.960Z,91.06
2023-03-05T21:18:43.652Z,91.10
2023-03-05T21:21:10.000Z,92.62
2023-03-05T21:23:36.691Z,91.20
2023-03-05T21:26:04.126Z,91.10
2023-03-05T21:28:31.665Z,91.42
2023-03-05T21:30:58.086Z,91.30
2023-03-05T21:33:28.103Z,91.48
2023-03-05T21:35:56.950Z,91.53
2023-03-05T21:38:25.358Z,91.53
2023-03-05T21:40:53.749Z,92.25
2023-03-05T21:43:22.834Z,92.14
2023-03-05T21:45:52.514Z,92.05
2023-03-05T21:48:19.750Z,92.27
2023-03-05T21:50:47.279Z,91.69
2023-03-05T21:53:16.537Z,91.72
2023-03-05T21:55:52.930Z,91.84
2023-03-05T21:58:19.257Z,91.75
2023-03-05T22:00:45.697Z,91.49
2023-03-05T22:03:12.071Z,91.69
2023-03-05T22:05:38.435Z,91.02
2023-03-05T22:08:04.830Z,91.00
2023-03-05T22:10:31.243Z,90.44
2023-03-05T22:13:11.390Z,90.35
2023-03-05T22:15:59.307Z,90.77
2023-03-05T22:18:29.114Z,90.49
2023-03-05T22:20:56.069Z,90.83
2023-03-05T22:23:24.393Z,91.13
2023-03-05T22:26:02.472Z,90.76
2023-03-05T22:28:29.078Z,90.90
2023-03-05T22:30:55.762Z,90.20
2023-03-05T22:33:23.312Z,90.63
2023-03-05T22:35:50.256Z,90.98
2023-03-05T22:38:16.816Z,90.90
2023-03-05T22:40:45.588Z,91.76
2023-03-05T22:43:12.821Z,90.94
2023-03-05T22:45:40.001Z,90.47
2023-03-05T22:48:09.610Z,91.13
2023-03-05T22:50:37.599Z,91.32
2023-03-05T22:53:03.934Z,90.87
2023-03-05T22:55:30.244Z,91.72
2023-03-05T22:57:56.612Z,91.68
2023-03-05T23:00:23.526Z,91.71
2023-03-05T23:02:51.377Z,92.40
2023-03-05T23:05:18.423Z,93.04
2023-03-05T23:07:45.929Z,93.18
2023-03-05T23:10:13.996Z,93.35
2023-03-05T23:12:46.166Z,92.71
2023-03-05T23:15:15.153Z,92.48
2023-03-05T23:17:41.674Z,91.67
2023-03-05T23:20:15.832Z,91.63
2023-03-05T23:22:43.694Z,92.70
2023-03-05T23:25:11.538Z,91.67
2023-03-05T23:27:38.073Z,91.06
2023-03-05T23:30:21.532Z,90.49
2023-03-05T23:32:56.540Z,90.99
2023-03-05T23:35:29.231Z,90.60
2023-03-05T23:37:57.112Z,90.65
2023-03-05T23:40:29.465Z,91.37
2023-03-05T23:42:55.994Z,89.37
2023-03-05T23:45:23.005Z,89.66
2023-03-05T23:47:49.983Z,89.65
2023-03-05T23:50:25.444Z,91.99
2023-03-05T23:52:54.170Z,90.86
2023-03-05T23:55:30.068Z,91.56
2023-03-05T23:57:56.415Z,89.84
